Meteo Giornale » Osservazioni meteo Italia » Roma-Ciampino

ore: 14:50 - Osservazioni Meteo Roma-Ciampino
Lat. 41° 47' N Lon. 12° 35' E Alt. 129 metri s.l.m.

sereno Europe/Rome

35 °C

Sereno

Temp. 24 Ore

23 °C

36 °C

Ovest

20.3 Km/h

Dew point 16 °C

Umidità 32 %

Visibilità  10 Km

Il sole sorge alle ore 05:35

Il sole tramonta alle ore 20:50

Data e Ora Cielo e Fenomeni T °C DP °C Um. % Pres. hPa Vis. km Vento km/h
Oggi h: 14:50 sereno Sereno 35 16 32 1017 10 O 20.3
Oggi h: 14:20 sereno Sereno 35 16 32 1017 10 NO 13
Oggi h: 13:50 sereno Sereno 35 13 26 1017 10 N/NO 14.8
Oggi h: 13:20 sereno Sereno 36 13 25 1018 10 N/NO 14.8
Oggi h: 12:50 sereno Sereno 34 13 28 1018 10 N/NO 16.7
Oggi h: 11:50 sereno Sereno 33 16 36 1018 10 N/NE 9.3
Oggi h: 11:20 sereno Sereno 32 16 38 1018 10 N/NE 9.3
Oggi h: 10:50 sereno Sereno 32 16 38 1019 10 N 9.3
Oggi h: 10:20 sereno Sereno 31 16 40 1019 10 N 9.3
Oggi h: 09:20 sereno Sereno 29 16 45 1019 10 N 11.1
Oggi h: 08:20 sereno Sereno 26 15 50 1019 10 N/NE 11.1
Oggi h: 07:50 sereno Sereno 26 15 50 1019 10 N/NE 13
Oggi h: 07:20 sereno Sereno 24 15 57 1019 10 NE 14.8
Oggi h: 06:50 sereno Sereno 23 15 60 1019 10 N/NE 9.3
Oggi h: 05:50 sereno Sereno 23 14 56 1019 10 N 11.1
Oggi h: 05:20 sereno Sereno 26 13 44 1019 10 E 13
Oggi h: 04:20 sereno Sereno 23 15 60 1019 10 N 3.7
Oggi h: 03:50 sereno Sereno 24 14 53 1019 10 N 3.7
Oggi h: 03:20 sereno Sereno 24 14 53 1019 10 N 1.8
Oggi h: 02:50 sereno Sereno 25 14 50 1019 10 N 7.4
Oggi h: 02:20 sereno Sereno 25 14 50 1019 10 E/NE 7.4
Oggi h: 01:50 sereno Sereno 25 13 47 1019 10 E 11.1
Oggi h: 01:20 sereno Sereno 24 14 53 1019 10 E 7.4
Oggi h: 00:50 sereno Sereno 26 13 44 1019 10 N 3.7
Oggi h: 00:20 sereno Sereno 24 14 53 1020 10 E/SE 11.1
Ieri h: 23:50 sereno Sereno 25 15 53 1019 10 E 9.3
Ieri h: 23:20 sereno Sereno 25 15 53 1020 10 E/SE 9.3
Ieri h: 22:50 sereno Sereno 25 16 57 1020 10 E 7.4
Ieri h: 22:20 sereno Sereno 26 18 61 1019 10 N 5.5
Ieri h: 21:50 sereno Sereno 27 17 54 1019 10 N 5.5
Ieri h: 21:20 sereno Sereno 27 17 54 1019 10 SE 7.4
Ieri h: 20:50 sereno Sereno 28 17 51 1019 10 N 1.8
Ieri h: 19:50 sereno Sereno 30 17 45 1019 10 N 3.7
Ieri h: 19:20 sereno Sereno 29 17 48 1019 10 N 5.5
Ieri h: 17:50 poco_nuvoloso Poco Nuvoloso 31 15 37 1019 10 SO 9.3
Ieri h: 17:20 sereno Sereno 33 16 36 1019 10 O 14.8
Ieri h: 16:50 sereno Sereno 33 15 33 1019 10 O/SO 16.7
Ieri h: 16:20 sereno Sereno 34 16 34 1019 10 O/SO 13
Ieri h: 15:50 poco_nuvoloso Poco Nuvoloso 34 15 32 1019 10 O/SO 14.8